Time;durP1;ratioP1;P1;durP2;ratioP2;P2;SDS_P1;SDS_P2;PMS_P1;PMS_P2;Temp;Humidity;BMP_temperature;BMP_pressure;BME280_temperature;BME280_humidity;BME280_pressure;Samples;Min_cycle;Max_cycle;Signal;HPM_P1;HPM_P2
2022/12/23 00:00:56;;;;;;;23.98;13.82;;;;;;;0.29;71.08;94686.66;5013576;28;20095;-69
2022/12/23 00:03:21;;;;;;;24.27;14.57;;;;;;;0.25;70.70;94669.81;5041738;28;20045;-68
2022/12/23 00:05:47;;;;;;;22.50;13.25;;;;;;;0.39;70.82;94681.97;5029578;28;20033;-70
2022/12/23 00:08:12;;;;;;;38.20;24.00;;;;;;;0.24;70.85;94667.34;5038753;28;20029;-69
2022/12/23 00:10:38;;;;;;;30.30;18.33;;;;;;;0.31;71.47;94684.06;5031502;28;20036;-68
2022/12/23 00:15:48;;;;;;;28.23;16.92;;;;;;;0.31;71.49;94673.84;5035913;28;20092;-69
2022/12/23 00:18:13;;;;;;;38.45;22.75;;;;;;;0.42;71.38;94682.69;5033063;28;20458;-68
2022/12/23 00:20:39;;;;;;;30.63;18.73;;;;;;;0.37;71.20;94688.91;5034580;28;20029;-70
2022/12/23 00:23:04;;;;;;;26.13;15.65;;;;;;;0.38;71.24;94690.53;5034669;28;20033;-68
2022/12/23 00:25:40;;;;;;;21.50;13.55;;;;;;;0.32;71.90;94696.75;5034567;28;20018;-68
2022/12/23 00:28:13;;;;;;;18.38;11.38;;;;;;;0.35;72.07;94701.72;5053359;28;20511;-68
2022/12/23 00:30:57;;;;;;;16.73;11.52;;;;;;;0.46;70.86;94705.53;5040943;28;20041;-68
2022/12/23 00:33:24;;;;;;;18.38;11.60;;;;;;;0.36;71.35;94702.53;5033219;28;20056;-68
2022/12/23 00:35:50;;;;;;;17.88;10.82;;;;;;;0.41;71.47;94700.63;5041943;28;20025;-68
2022/12/23 00:38:16;;;;;;;15.05;9.90;;;;;;;0.36;71.73;94708.50;5034764;28;20040;-68
2022/12/23 00:43:26;;;;;;;14.73;8.95;;;;;;;0.35;72.33;94703.47;5033276;28;20075;-69
2022/12/23 00:45:51;;;;;;;21.33;12.90;;;;;;;0.32;72.27;94695.94;5045705;28;20033;-69
2022/12/23 00:51:00;;;;;;;20.17;12.95;;;;;;;0.29;71.48;94686.66;5033987;28;20052;-68
2022/12/23 00:53:26;;;;;;;17.63;12.10;;;;;;;0.35;70.87;94691.50;5032434;28;20029;-68
2022/12/23 00:55:51;;;;;;;18.10;11.02;;;;;;;0.20;71.20;94680.25;5033183;28;20026;-69
2022/12/23 00:58:17;;;;;;;15.43;10.48;;;;;;;0.30;71.31;94683.22;5052720;28;20068;-68
2022/12/23 01:06:11;;;;;;;14.27;9.45;;;;;;;0.22;71.69;94677.59;5052265;28;20104;-68
2022/12/23 01:08:37;;;;;;;14.70;9.13;;;;;;;0.26;71.31;94671.47;5052919;28;20036;-69
2022/12/23 01:11:03;;;;;;;14.55;9.38;;;;;;;0.14;71.45;94665.19;5035493;28;20079;-69
2022/12/23 01:13:29;;;;;;;14.02;9.00;;;;;;;0.14;70.37;94654.97;5042148;28;20038;-68
2022/12/23 01:16:06;;;;;;;16.10;9.18;;;;;;;0.24;70.22;94655.38;5033366;28;20034;-68
2022/12/23 01:18:33;;;;;;;15.90;9.48;;;;;;;0.33;69.77;94660.06;5032434;28;20579;-68
2022/12/23 01:21:05;;;;;;;15.27;9.82;;;;;;;0.40;69.18;94658.09;5037930;28;20017;-68
2022/12/23 01:23:30;;;;;;;16.10;9.75;;;;;;;0.30;68.65;94661.94;5036119;28;20041;-69
2022/12/23 01:26:00;;;;;;;27.23;16.58;;;;;;;0.40;69.52;94653.78;5052113;28;20044;-68
2022/12/23 01:28:26;;;;;;;27.55;16.20;;;;;;;0.41;69.80;94668.22;5051298;28;20067;-68
2022/12/23 01:30:52;;;;;;;26.58;16.45;;;;;;;0.61;69.79;94671.59;5049293;28;20082;-68
2022/12/23 01:33:17;;;;;;;22.75;13.00;;;;;;;0.70;67.92;94653.28;5050263;28;20049;-68
2022/12/23 01:35:43;;;;;;;27.55;15.65;;;;;;;0.58;69.01;94656.41;5015821;28;20423;-68
2022/12/23 01:38:08;;;;;;;27.30;17.73;;;;;;;0.76;68.80;94686.22;5031988;28;20033;-68
2022/12/23 01:40:35;;;;;;;27.52;15.18;;;;;;;0.75;69.38;94682.00;5048417;28;20488;-68
2022/12/23 01:43:01;;;;;;;23.48;14.63;;;;;;;0.92;68.33;94683.78;5035199;28;20037;-68
2022/12/23 01:45:30;;;;;;;18.83;12.13;;;;;;;0.91;68.89;94679.56;5052961;28;20037;-68
2022/12/23 01:48:00;;;;;;;14.45;9.77;;;;;;;0.98;69.17;94675.00;5048992;28;20034;-68
2022/12/23 01:50:39;;;;;;;14.98;9.35;;;;;;;1.01;69.50;94669.75;5050985;28;20025;-69
2022/12/23 01:53:08;;;;;;;15.02;9.85;;;;;;;0.99;69.11;94664.69;5051611;28;20032;-68
2022/12/23 01:55:58;;;;;;;14.52;8.52;;;;;;;1.05;68.78;94655.88;5052726;28;20025;-68
2022/12/23 01:58:34;;;;;;;14.45;8.70;;;;;;;1.00;69.64;94656.09;5034664;28;20061;-69
2022/12/23 02:03:44;;;;;;;19.42;10.13;;;;;;;0.93;68.48;94646.25;5017967;28;20507;-69
2022/12/23 02:12:09;;;;;;;18.83;11.43;;;;;;;0.90;69.05;94637.00;5051903;28;20419;-69
2022/12/23 02:18:13;;;;;;;31.00;17.63;;;;;;;0.88;68.55;94619.16;5032981;28;20478;-69
2022/12/23 02:20:44;;;;;;;34.38;19.73;;;;;;;0.95;68.75;94613.72;5032362;28;20035;-69
2022/12/23 02:23:37;;;;;;;38.35;22.33;;;;;;;1.05;68.86;94604.72;5032591;28;20038;-69
2022/12/23 02:26:14;;;;;;;36.85;22.33;;;;;;;0.96;68.64;94603.44;5046544;28;20040;-68
2022/12/23 02:29:01;;;;;;;42.35;23.52;;;;;;;1.01;68.00;94608.34;5052526;28;20025;-68
2022/12/23 02:31:44;;;;;;;44.33;25.48;;;;;;;1.11;68.29;94606.97;5050250;28;20048;-68
2022/12/23 02:34:18;;;;;;;51.50;28.50;;;;;;;1.10;68.30;94613.00;5050600;28;20040;-69
2022/12/23 02:36:55;;;;;;;43.08;23.58;;;;;;;0.98;68.84;94593.16;5033893;28;20191;-68
2022/12/23 02:39:43;;;;;;;49.47;26.48;;;;;;;1.02;68.71;94597.19;5050662;28;20107;-69
2022/12/23 02:42:15;;;;;;;51.88;29.15;;;;;;;0.99;69.26;94625.47;5030381;28;20045;-70
2022/12/23 02:44:58;;;;;;;60.17;34.67;;;;;;;0.98;69.23;94619.53;5030312;28;20036;-69
2022/12/23 02:47:26;;;;;;;70.82;37.30;;;;;;;1.06;68.47;94622.56;5030528;28;20468;-69
2022/12/23 02:49:57;;;;;;;60.08;32.35;;;;;;;1.07;69.12;94613.16;5014748;28;20029;-69
2022/12/23 02:52:27;;;;;;;52.92;28.45;;;;;;;0.98;69.16;94608.50;5029810;28;20388;-69
2022/12/23 02:54:56;;;;;;;55.65;31.58;;;;;;;1.04;69.95;94611.56;5034123;28;20072;-70
2022/12/23 02:57:23;;;;;;;81.65;42.42;;;;;;;1.04;70.12;94606.44;5050176;28;20048;-70
2022/12/23 02:59:50;;;;;;;82.68;43.45;;;;;;;1.15;69.91;94611.03;5016845;28;20036;-70
2022/12/23 03:02:15;;;;;;;76.32;44.25;;;;;;;1.14;69.41;94619.59;5031818;28;20037;-69
2022/12/23 03:04:41;;;;;;;75.65;43.53;;;;;;;1.13;69.37;94620.53;5051464;28;20055;-70
2022/12/23 03:07:08;;;;;;;70.57;40.08;;;;;;;1.07;69.65;94608.03;5021686;28;20037;-69
2022/12/23 03:10:03;;;;;;;65.25;35.85;;;;;;;1.21;69.26;94610.75;5030235;28;20480;-70
2022/12/23 03:13:10;;;;;;;49.65;31.70;;;;;;;1.17;69.68;94614.38;5033804;28;20046;-70
2022/12/23 03:15:46;;;;;;;53.63;31.05;;;;;;;1.14;69.38;94613.66;5033394;28;20414;-70
2022/12/23 03:18:22;;;;;;;55.80;32.97;;;;;;;1.09;69.85;94637.75;5034212;28;20040;-69
2022/12/23 03:20:52;;;;;;;54.33;32.58;;;;;;;0.98;69.73;94623.84;5013600;28;20041;-70
2022/12/23 03:23:24;;;;;;;48.38;28.88;;;;;;;0.93;69.95;94613.00;5013924;28;20068;-69
2022/12/23 03:25:56;;;;;;;52.30;29.40;;;;;;;1.07;69.11;94628.50;5030003;28;20037;-70
2022/12/23 03:28:25;;;;;;;;;;;;;;;1.03;69.49;94627.84;5033699;28;20037;-69
2022/12/23 03:30:52;;;;;;;51.15;29.15;;;;;;;0.99;69.73;94622.94;5046976;28;19917;-69
2022/12/23 03:33:30;;;;;;;47.90;29.00;;;;;;;0.70;69.76;94568.91;5013281;28;20052;-69
2022/12/23 03:36:00;;;;;;;50.40;30.15;;;;;;;0.98;69.24;94621.28;5013421;28;20025;-70
2022/12/23 03:38:25;;;;;;;49.60;31.27;;;;;;;0.98;69.43;94619.53;5046302;28;20100;-69
2022/12/23 03:40:56;;;;;;;58.03;31.05;;;;;;;0.86;69.69;94620.13;5033151;28;20021;-69
2022/12/23 03:43:24;;;;;;;52.42;30.40;;;;;;;0.82;69.41;94614.34;5049431;28;20449;-69
2022/12/23 03:45:54;;;;;;;52.17;30.60;;;;;;;0.73;70.06;94625.00;5016627;28;20029;-70
2022/12/23 03:48:32;;;;;;;46.28;28.25;;;;;;;0.59;69.65;94576.25;5027373;28;20476;-69
2022/12/23 03:51:04;;;;;;;50.95;30.58;;;;;;;0.79;70.24;94611.91;5033119;28;20079;-69
2022/12/23 03:53:32;;;;;;;54.45;30.10;;;;;;;0.78;69.83;94620.50;5033174;28;20036;-69
2022/12/23 03:56:00;;;;;;;50.92;29.17;;;;;;;0.78;69.81;94627.31;5046186;28;20313;-69
2022/12/23 03:58:36;;;;;;;51.92;30.20;;;;;;;0.84;70.09;94632.19;5012972;28;20061;-69
2022/12/23 04:01:18;;;;;;;52.50;29.70;;;;;;;0.82;69.40;94631.41;5013790;28;20030;-69
2022/12/23 04:03:54;;;;;;;49.50;29.08;;;;;;;0.88;69.72;94638.78;5045717;28;20279;-69
2022/12/23 04:06:20;;;;;;;51.42;31.60;;;;;;;0.88;69.33;94634.50;5047442;28;20376;-69
2022/12/23 04:08:45;;;;;;;49.30;29.98;;;;;;;0.66;69.90;94641.53;5031147;28;20036;-69
2022/12/23 04:11:11;;;;;;;46.63;27.10;;;;;;;0.70;69.39;94622.59;5030227;28;20044;-69
2022/12/23 04:13:36;;;;;;;54.65;30.33;;;;;;;0.70;69.54;94620.03;5032332;28;20049;-69
2022/12/23 04:16:02;;;;;;;49.78;27.95;;;;;;;0.71;69.55;94626.81;5032711;28;20025;-69
2022/12/23 04:18:27;;;;;;;45.45;26.90;;;;;;;0.81;70.15;94638.25;5011983;28;20397;-70
2022/12/23 04:20:53;;;;;;;46.05;26.42;;;;;;;0.87;69.89;94637.97;5029383;28;20507;-70
2022/12/23 04:23:18;;;;;;;40.10;22.85;;;;;;;0.83;69.43;94621.09;5048289;28;20037;-69
2022/12/23 04:25:44;;;;;;;42.53;23.65;;;;;;;0.94;69.30;94625.69;5050489;28;20454;-69
2022/12/23 04:28:09;;;;;;;41.40;24.05;;;;;;;0.89;69.31;94618.25;5015958;28;20037;-70
2022/12/23 04:30:34;;;;;;;57.38;26.85;;;;;;;0.99;68.66;94620.38;5049236;28;20052;-69
2022/12/23 04:33:00;;;;;;;40.83;24.15;;;;;;;0.96;69.13;94621.34;5036494;28;20136;-69
2022/12/23 04:35:25;;;;;;;35.92;23.63;;;;;;;0.92;69.43;94619.84;5029239;28;20036;-70
2022/12/23 04:37:51;;;;;;;35.13;21.05;;;;;;;0.94;69.54;94637.66;5030587;28;20025;-69
2022/12/23 04:40:16;;;;;;;36.00;20.45;;;;;;;0.96;69.50;94640.97;5030332;28;20037;-70
2022/12/23 04:42:42;;;;;;;39.38;20.40;;;;;;;0.97;69.92;94624.72;5029962;28;20091;-69
2022/12/23 04:45:08;;;;;;;81.47;32.88;;;;;;;0.93;69.96;94616.38;5030422;28;20076;-69
2022/12/23 04:47:34;;;;;;;48.15;21.13;;;;;;;0.97;70.16;94611.94;5036899;28;20040;-69
2022/12/23 04:49:59;;;;;;;22.40;13.10;;;;;;;1.01;70.55;94606.59;5012638;28;20032;-70
2022/12/23 04:52:25;;;;;;;36.00;16.55;;;;;;;1.02;71.04;94605.69;5041853;28;20037;-70
2022/12/23 04:54:50;;;;;;;23.73;12.10;;;;;;;1.10;71.02;94598.47;5037331;28;20048;-69
2022/12/23 04:57:16;;;;;;;30.20;14.77;;;;;;;1.02;70.96;94613.38;5032791;28;20050;-69
2022/12/23 04:59:41;;;;;;;97.55;32.50;;;;;;;1.07;70.91;94613.16;5016225;28;20032;-69
2022/12/23 05:02:07;;;;;;;27.75;13.13;;;;;;;1.12;70.59;94631.66;5033916;28;20408;-69
2022/12/23 05:04:32;;;;;;;50.10;27.67;;;;;;;1.03;69.87;94616.75;5032625;28;20025;-69
2022/12/23 05:06:57;;;;;;;46.05;27.98;;;;;;;0.99;70.31;94610.13;5033343;28;20035;-69
2022/12/23 05:09:23;;;;;;;46.00;26.83;;;;;;;1.02;70.37;94617.66;5032512;28;20037;-70
2022/12/23 05:11:48;;;;;;;45.88;28.05;;;;;;;1.04;69.67;94608.19;5045169;28;20039;-69
2022/12/23 05:14:14;;;;;;;84.43;39.92;;;;;;;1.19;70.12;94650.91;5052225;28;20036;-69
2022/12/23 05:16:39;;;;;;;302.15;89.05;;;;;;;1.15;70.34;94643.50;5035132;28;20541;-69
2022/12/23 05:19:05;;;;;;;75.03;41.28;;;;;;;1.01;69.85;94644.97;5015860;28;20392;-70
2022/12/23 05:21:30;;;;;;;62.03;37.03;;;;;;;1.06;70.10;94639.66;5041947;28;20461;-69
2022/12/23 05:23:56;;;;;;;55.65;33.42;;;;;;;1.19;70.21;94639.88;5052985;28;20422;-69
2022/12/23 05:26:21;;;;;;;61.00;34.30;;;;;;;1.14;69.89;94639.25;5052086;28;20020;-69
2022/12/23 05:28:47;;;;;;;63.75;36.40;;;;;;;1.22;70.11;94652.50;5052265;28;20106;-69
2022/12/23 05:31:12;;;;;;;56.50;33.65;;;;;;;1.17;70.45;94657.88;5053225;28;20025;-69
2022/12/23 05:33:38;;;;;;;70.70;39.85;;;;;;;1.22;70.37;94662.75;5032912;28;20041;-69
2022/12/23 05:36:04;;;;;;;71.82;42.05;;;;;;;1.24;69.92;94661.78;5051468;28;20021;-69
2022/12/23 05:38:29;;;;;;;78.75;41.85;;;;;;;1.36;69.97;94668.00;5051733;28;20043;-70
2022/12/23 05:40:55;;;;;;;61.45;36.53;;;;;;;1.35;69.32;94653.56;5047993;28;20037;-69
2022/12/23 05:43:20;;;;;;;68.88;38.92;;;;;;;1.42;69.73;94670.28;5045249;28;20029;-69
2022/12/23 05:45:46;;;;;;;64.70;35.67;;;;;;;1.37;70.46;94671.41;5015439;28;20040;-69
2022/12/23 05:48:11;;;;;;;61.92;36.00;;;;;;;1.32;70.52;94653.72;5043189;28;20029;-70
2022/12/23 05:50:37;;;;;;;78.90;39.10;;;;;;;1.45;70.05;94659.03;5051742;28;20028;-70
2022/12/23 05:53:02;;;;;;;85.43;39.28;;;;;;;1.47;70.19;94644.44;5035134;28;20040;-69
2022/12/23 05:55:28;;;;;;;72.35;38.58;;;;;;;1.44;69.97;94652.28;5050363;28;20032;-71
2022/12/23 05:57:53;;;;;;;57.60;33.00;;;;;;;1.46;70.32;94642.78;5048731;28;20056;-69
2022/12/23 06:00:19;;;;;;;51.20;29.27;;;;;;;1.37;70.57;94625.34;5028893;28;20496;-69
2022/12/23 06:02:45;;;;;;;57.08;31.67;;;;;;;1.38;70.76;94637.22;5050503;28;20037;-69
2022/12/23 06:05:10;;;;;;;95.60;53.85;;;;;;;1.32;70.79;94649.41;5042001;28;20036;-69
2022/12/23 06:07:36;;;;;;;89.28;44.90;;;;;;;1.14;71.95;94663.09;5031814;28;20087;-69
2022/12/23 06:10:03;;;;;;;90.07;46.88;;;;;;;0.97;72.30;94647.75;5012801;28;20563;-69
2022/12/23 06:12:28;;;;;;;69.88;38.42;;;;;;;0.91;71.96;94653.97;5027365;28;20041;-70
2022/12/23 06:14:54;;;;;;;71.13;43.88;;;;;;;0.98;71.61;94667.31;5047481;28;20037;-69
2022/12/23 06:17:19;;;;;;;69.78;37.70;;;;;;;1.01;71.81;94664.63;5040742;28;20030;-68
2022/12/23 06:19:46;;;;;;;56.50;31.13;;;;;;;1.02;71.30;94656.84;5024397;28;20037;-68
2022/12/23 06:22:12;;;;;;;56.00;30.38;;;;;;;1.08;71.06;94650.63;5044567;28;20032;-68
2022/12/23 06:24:37;;;;;;;60.35;32.10;;;;;;;1.17;71.21;94662.97;5048071;28;20064;-68
2022/12/23 06:27:03;;;;;;;62.85;36.92;;;;;;;1.21;71.86;94661.91;5043388;28;20503;-68
2022/12/23 06:29:28;;;;;;;66.22;37.20;;;;;;;1.25;71.85;94670.25;5029740;28;20419;-69
2022/12/23 06:31:53;;;;;;;65.82;37.25;;;;;;;1.30;71.10;94664.03;5047415;28;20029;-68
2022/12/23 06:34:19;;;;;;;71.68;39.90;;;;;;;1.37;70.46;94661.19;5047518;28;20044;-68
2022/12/23 06:36:44;;;;;;;72.78;41.67;;;;;;;1.44;70.60;94663.34;5046588;28;20025;-68
2022/12/23 06:39:10;;;;;;;82.13;44.80;;;;;;;1.45;70.39;94667.56;5046587;28;20033;-68
2022/12/23 06:41:35;;;;;;;101.15;52.03;;;;;;;1.49;70.77;94663.13;5025596;28;20036;-69
2022/12/23 06:44:01;;;;;;;102.95;51.60;;;;;;;1.41;71.42;94655.00;5044043;28;20025;-68
2022/12/23 06:46:26;;;;;;;92.72;48.38;;;;;;;1.50;71.39;94668.16;5046505;28;20094;-68
2022/12/23 06:48:52;;;;;;;101.68;49.97;;;;;;;1.49;71.31;94661.38;5046547;28;20047;-69
2022/12/23 06:51:17;;;;;;;92.18;48.72;;;;;;;1.54;71.59;94668.84;5046513;28;20029;-68
2022/12/23 06:53:43;;;;;;;110.25;56.47;;;;;;;1.51;71.13;94662.16;5047201;28;20107;-68
2022/12/23 06:56:08;;;;;;;97.90;52.30;;;;;;;1.36;71.61;94650.09;5042359;28;20643;-68
2022/12/23 06:58:34;;;;;;;86.18;48.20;;;;;;;1.67;70.66;94663.94;5044932;28;20049;-69
2022/12/23 07:00:59;;;;;;;86.40;48.63;;;;;;;1.71;70.62;94668.81;5037660;28;20519;-69
2022/12/23 07:03:24;;;;;;;83.45;46.50;;;;;;;1.75;70.28;94672.03;5041594;28;20555;-68
2022/12/23 07:05:50;;;;;;;134.75;63.95;;;;;;;1.71;70.23;94681.63;5042118;28;20030;-69
2022/12/23 07:08:16;;;;;;;220.15;96.32;;;;;;;1.72;70.41;94675.59;5044593;28;20036;-69
2022/12/23 07:10:42;;;;;;;158.68;74.00;;;;;;;1.82;69.89;94678.53;5047141;28;20491;-69
2022/12/23 07:13:08;;;;;;;137.85;64.65;;;;;;;1.85;70.41;94677.56;5039189;28;20061;-68
2022/12/23 07:15:33;;;;;;;140.35;62.13;;;;;;;1.91;69.46;94679.78;5039015;28;20037;-69
2022/12/23 07:17:58;;;;;;;112.28;54.83;;;;;;;1.91;69.05;94677.22;5041237;28;20573;-69
2022/12/23 07:20:24;;;;;;;91.28;48.30;;;;;;;1.86;69.71;94680.00;5045313;28;20526;-69
2022/12/23 07:22:49;;;;;;;103.57;53.42;;;;;;;1.87;69.68;94676.56;5037062;28;20063;-70
2022/12/23 07:25:15;;;;;;;88.75;47.65;;;;;;;1.96;70.03;94682.94;5042498;28;20025;-69
2022/12/23 07:27:41;;;;;;;78.78;45.40;;;;;;;2.02;69.31;94680.06;5039923;28;20025;-68
2022/12/23 07:30:07;;;;;;;80.63;43.50;;;;;;;1.98;68.86;94668.34;5048388;28;20056;-68
2022/12/23 07:32:32;;;;;;;70.38;41.33;;;;;;;1.87;69.90;94673.19;5049589;28;20041;-69
2022/12/23 07:34:58;;;;;;;74.13;47.22;;;;;;;2.00;69.20;94684.44;5049614;28;20083;-68
2022/12/23 07:37:23;;;;;;;80.63;46.03;;;;;;;2.05;69.54;94685.03;5048221;28;20036;-69
2022/12/23 07:39:49;;;;;;;73.95;44.08;;;;;;;2.09;69.28;94685.69;5034334;28;20037;-70
2022/12/23 07:42:14;;;;;;;98.38;65.57;;;;;;;2.16;68.56;94690.44;5043352;28;20028;-69
2022/12/23 07:44:40;;;;;;;84.03;54.15;;;;;;;2.12;68.86;94680.44;5042064;28;20455;-69
2022/12/23 07:47:06;;;;;;;86.18;57.92;;;;;;;2.27;68.40;94683.94;5025891;28;20482;-69
2022/12/23 07:49:31;;;;;;;72.32;45.10;;;;;;;2.25;67.62;94684.00;5049176;28;20070;-70
2022/12/23 07:51:56;;;;;;;69.30;43.33;;;;;;;2.28;68.21;94696.66;5048897;28;20037;-69
2022/12/23 07:54:22;;;;;;;74.15;44.15;;;;;;;2.23;68.68;94694.34;5031156;28;20079;-69
2022/12/23 07:56:47;;;;;;;75.32;46.75;;;;;;;2.36;68.25;94703.94;5046403;28;20040;-69
2022/12/23 07:59:13;;;;;;;74.72;43.97;;;;;;;2.34;68.69;94704.03;5048721;28;20609;-69
2022/12/23 08:01:39;;;;;;;77.88;52.33;;;;;;;2.37;68.46;94703.88;5047202;28;20045;-69
2022/12/23 08:04:05;;;;;;;73.32;48.00;;;;;;;2.34;68.42;94698.06;5047314;28;20029;-69
2022/12/23 08:06:33;;;;;;;75.95;44.83;;;;;;;2.40;68.16;94705.47;5048450;28;20032;-69
2022/12/23 08:08:58;;;;;;;72.18;44.90;;;;;;;2.29;68.23;94690.63;5033171;28;20029;-69
2022/12/23 08:11:24;;;;;;;65.35;42.42;;;;;;;2.44;68.09;94709.50;5049448;28;20618;-69
2022/12/23 08:13:51;;;;;;;70.65;44.00;;;;;;;2.34;68.51;94703.19;5049542;28;20029;-69
2022/12/23 08:16:17;;;;;;;71.70;42.95;;;;;;;2.32;68.64;94713.53;5049341;28;20041;-69
2022/12/23 08:18:42;;;;;;;65.80;42.10;;;;;;;2.36;68.28;94714.19;5051022;28;20082;-69
2022/12/23 08:21:18;;;;;;;69.35;41.55;;;;;;;2.37;68.26;94711.56;5049108;28;20029;-69
2022/12/23 08:23:45;;;;;;;64.38;41.63;;;;;;;2.47;67.77;94709.34;5033076;28;20483;-69
2022/12/23 08:26:20;;;;;;;65.78;43.72;;;;;;;2.52;68.31;94709.94;5032818;28;20041;-69
2022/12/23 08:28:45;;;;;;;74.47;44.28;;;;;;;2.60;68.45;94701.84;5049493;28;20091;-69
2022/12/23 08:31:14;;;;;;;65.07;41.97;;;;;;;2.74;68.24;94698.53;5043138;28;20033;-69
2022/12/23 08:33:41;;;;;;;70.45;42.70;;;;;;;2.91;66.96;94701.00;5045997;28;20040;-69
2022/12/23 08:36:13;;;;;;;75.47;43.55;;;;;;;2.99;66.74;94698.84;5048943;28;20029;-69
2022/12/23 08:38:38;;;;;;;69.95;43.80;;;;;;;3.00;66.37;94703.06;5020043;28;20120;-66
2022/12/23 08:41:11;;;;;;;71.68;44.40;;;;;;;3.03;66.20;94694.34;5038881;28;20030;-67
2022/12/23 08:43:36;;;;;;;80.63;44.55;;;;;;;2.89;66.12;94695.94;5044392;28;20027;-67
2022/12/23 08:46:02;;;;;;;81.55;45.38;;;;;;;2.84;66.36;94687.69;5054032;28;20033;-68
2022/12/23 08:48:28;;;;;;;79.18;47.20;;;;;;;2.93;66.19;94685.53;5052911;28;20107;-67
2022/12/23 08:50:53;;;;;;;75.13;43.50;;;;;;;2.97;66.46;94685.25;5049922;28;20029;-67
2022/12/23 08:53:18;;;;;;;76.90;43.13;;;;;;;3.36;65.27;94689.09;5052547;28;20048;-68
2022/12/23 08:55:45;;;;;;;81.20;45.17;;;;;;;3.57;65.24;94695.59;5051321;28;20033;-67
2022/12/23 08:58:11;;;;;;;74.53;43.38;;;;;;;3.73;64.91;94694.69;5028844;28;20037;-67
2022/12/23 09:00:37;;;;;;;81.97;45.47;;;;;;;3.68;65.13;94673.59;5035360;28;20420;-68
2022/12/23 09:03:02;;;;;;;75.25;44.42;;;;;;;4.00;64.38;94690.50;5050406;28;20036;-67
2022/12/23 09:05:28;;;;;;;78.05;45.70;;;;;;;4.08;64.60;94679.78;5037138;28;20021;-70
2022/12/23 09:07:53;;;;;;;69.93;42.75;;;;;;;4.16;64.01;94681.91;5008577;28;20032;-68
2022/12/23 09:10:19;;;;;;;59.47;36.55;;;;;;;4.34;63.29;94685.91;5051453;28;20040;-69
2022/12/23 09:12:45;;;;;;;60.15;36.67;;;;;;;4.41;63.69;94679.50;5034614;28;20412;-69
2022/12/23 09:15:10;;;;;;;63.42;37.08;;;;;;;4.50;63.78;94682.44;5032245;28;20068;-70
2022/12/23 09:17:35;;;;;;;52.60;33.20;;;;;;;4.59;63.54;94679.28;5032282;28;20036;-68
2022/12/23 09:20:01;;;;;;;48.88;31.17;;;;;;;4.80;62.01;94683.13;5033438;28;20026;-68
2022/12/23 09:22:26;;;;;;;48.95;29.92;;;;;;;4.88;62.27;94683.47;5024663;28;20037;-69
2022/12/23 09:24:52;;;;;;;63.10;35.22;;;;;;;5.03;61.15;94683.41;5036071;28;20510;-68
2022/12/23 09:27:17;;;;;;;56.28;33.83;;;;;;;4.78;61.43;94668.69;5033176;28;20431;-68
2022/12/23 09:29:43;;;;;;;60.42;34.13;;;;;;;4.80;61.56;94666.84;5032067;28;20467;-68
2022/12/23 09:32:08;;;;;;;58.95;34.40;;;;;;;5.03;61.32;94683.41;5033189;28;20105;-68
2022/12/23 09:34:33;;;;;;;51.72;32.20;;;;;;;5.20;60.82;94678.03;5033115;28;20044;-71
2022/12/23 09:36:59;;;;;;;50.33;31.02;;;;;;;5.35;60.61;94679.63;5032025;28;20040;-69
2022/12/23 09:39:24;;;;;;;52.35;32.80;;;;;;;5.41;60.01;94687.88;5033036;28;20030;-68
2022/12/23 09:42:00;;;;;;;52.90;30.98;;;;;;;5.60;60.38;94680.63;5032241;28;20033;-69
2022/12/23 09:44:47;;;;;;;46.13;29.38;;;;;;;5.74;58.82;94680.53;5032014;28;20118;-68
2022/12/23 09:47:21;;;;;;;43.50;27.73;;;;;;;5.57;59.04;94676.50;5030437;28;20511;-68
2022/12/23 09:50:01;;;;;;;42.30;27.75;;;;;;;5.54;59.08;94678.41;5013044;28;20036;-69
2022/12/23 09:52:52;;;;;;;46.58;29.55;;;;;;;5.72;59.60;94677.22;5047216;28;20585;-68
2022/12/23 09:55:18;;;;;;;45.22;27.65;;;;;;;5.57;58.77;94663.59;5046976;28;20419;-69
2022/12/23 09:58:00;;;;;;;49.53;28.40;;;;;;;5.46;58.30;94668.63;5024357;28;20050;-68
2022/12/23 10:00:27;;;;;;;42.47;27.23;;;;;;;5.61;58.51;94664.22;5023919;28;20064;-68
2022/12/23 10:03:01;;;;;;;40.78;25.75;;;;;;;5.75;58.63;94666.72;5009921;28;20064;-68
2022/12/23 10:05:30;;;;;;;41.63;26.15;;;;;;;5.89;58.98;94675.28;5041063;28;20067;-68
2022/12/23 10:08:02;;;;;;;42.58;25.92;;;;;;;6.01;59.08;94670.16;5044830;28;20107;-68
2022/12/23 10:10:51;;;;;;;43.53;26.95;;;;;;;6.06;58.32;94672.44;5044356;28;20037;-68
2022/12/23 10:13:26;;;;;;;39.13;26.38;;;;;;;5.94;58.46;94660.38;5043871;28;20090;-68
2022/12/23 10:15:51;;;;;;;39.72;26.48;;;;;;;6.02;58.30;94658.09;5012776;28;20044;-69
2022/12/23 10:18:22;;;;;;;40.25;26.02;;;;;;;6.13;59.17;94671.09;5030135;28;20044;-68
2022/12/23 10:20:52;;;;;;;40.50;26.85;;;;;;;6.14;59.56;94665.00;5014200;28;20041;-68
2022/12/23 10:23:28;;;;;;;38.85;25.52;;;;;;;6.11;58.97;94654.91;5030540;28;20037;-68
2022/12/23 10:25:53;;;;;;;40.30;25.88;;;;;;;6.07;60.31;94661.19;5030709;28;20099;-68
2022/12/23 10:28:19;;;;;;;40.65;26.27;;;;;;;6.09;60.15;94643.84;5046449;28;20033;-68
2022/12/23 10:31:04;;;;;;;41.13;25.88;;;;;;;6.13;60.05;94650.47;5043278;28;20041;-69
2022/12/23 10:34:08;;;;;;;37.75;25.23;;;;;;;6.11;60.22;94654.91;5042301;28;20033;-67
2022/12/23 10:36:46;;;;;;;35.92;23.55;;;;;;;6.09;60.78;94658.50;5028419;28;20191;-68
2022/12/23 10:39:29;;;;;;;40.58;25.83;;;;;;;6.23;60.97;94650.66;5043632;28;20514;-68
2022/12/23 10:42:20;;;;;;;45.50;30.00;;;;;;;6.31;60.46;94642.41;5038993;28;20036;-68
2022/12/23 10:44:48;;;;;;;41.78;25.05;;;;;;;6.44;60.53;94628.53;5029181;28;20071;-68
2022/12/23 10:47:41;;;;;;;37.15;23.52;;;;;;;6.62;60.97;94620.44;5047764;28;20427;-68
2022/12/23 10:50:31;;;;;;;34.28;22.42;;;;;;;6.94;61.03;94611.25;5047627;28;20029;-68
2022/12/23 10:52:57;;;;;;;35.53;22.70;;;;;;;7.14;60.79;94616.72;5039947;28;20055;-68
2022/12/23 10:55:26;;;;;;;39.63;23.73;;;;;;;7.43;59.36;94621.53;5024129;28;20033;-69
2022/12/23 10:57:51;;;;;;;43.72;26.35;;;;;;;7.66;58.53;94609.47;5028107;28;20488;-68
2022/12/23 11:00:21;;;;;;;40.80;26.67;;;;;;;7.70;58.08;94598.81;5046999;28;20036;-68
2022/12/23 11:03:09;;;;;;;42.15;25.73;;;;;;;7.96;57.32;94609.75;5014042;28;20427;-68
2022/12/23 11:05:34;;;;;;;37.25;24.63;;;;;;;8.12;56.08;94608.63;5046639;28;20044;-69
2022/12/23 11:08:00;;;;;;;38.92;25.50;;;;;;;8.00;55.97;94600.03;5029506;28;20021;-68
2022/12/23 11:10:28;;;;;;;38.22;24.33;;;;;;;8.14;55.98;94604.16;5030134;28;20037;-68
2022/12/23 11:12:53;;;;;;;31.67;21.08;;;;;;;8.24;55.74;94602.47;5027754;28;20060;-67
2022/12/23 11:15:35;;;;;;;29.67;19.95;;;;;;;8.33;55.47;94606.97;5024598;28;20499;-68
2022/12/23 11:18:12;;;;;;;27.67;18.45;;;;;;;8.44;56.00;94604.41;5046328;28;20029;-68
2022/12/23 11:20:40;;;;;;;27.10;18.90;;;;;;;8.59;55.70;94611.91;5049887;28;20091;-68
2022/12/23 11:23:18;;;;;;;26.45;18.50;;;;;;;8.58;54.90;94594.72;5025485;28;20041;-68
2022/12/23 11:25:43;;;;;;;31.15;19.55;;;;;;;8.71;54.89;94606.59;5030658;28;20033;-68
2022/12/23 11:28:09;;;;;;;28.48;19.05;;;;;;;8.74;54.63;94600.34;5033330;28;20025;-68
2022/12/23 11:30:44;;;;;;;31.52;19.35;;;;;;;8.69;54.46;94602.47;5050963;28;20545;-68
2022/12/23 11:33:26;;;;;;;27.40;18.27;;;;;;;8.81;54.86;94605.88;5029948;28;20029;-68
2022/12/23 11:36:06;;;;;;;28.10;18.52;;;;;;;8.73;54.58;94602.13;5032673;28;20071;-68
2022/12/23 11:38:32;;;;;;;30.55;19.10;;;;;;;8.74;54.70;94595.16;5051245;28;20029;-68
2022/12/23 11:40:58;;;;;;;27.27;19.52;;;;;;;8.87;54.42;94597.63;5033338;28;20104;-68
2022/12/23 11:43:23;;;;;;;29.88;18.75;;;;;;;8.88;54.21;94588.88;5050351;28;20032;-68
2022/12/23 11:45:49;;;;;;;30.60;20.42;;;;;;;8.86;54.36;94599.41;5049647;28;20075;-68
2022/12/23 11:48:28;;;;;;;30.27;20.80;;;;;;;8.91;54.03;94607.63;5022870;28;20029;-68
2022/12/23 11:51:00;;;;;;;32.65;21.30;;;;;;;8.83;54.11;94598.78;4996759;28;20081;-69
2022/12/23 11:53:26;;;;;;;30.17;20.17;;;;;;;8.85;54.00;94612.44;5013713;28;20108;-68
2022/12/23 11:56:08;;;;;;;34.55;21.15;;;;;;;8.92;54.05;94611.03;5030777;28;20424;-69
2022/12/23 11:58:39;;;;;;;35.55;23.02;;;;;;;8.83;53.90;94593.59;5030693;28;20041;-68
2022/12/23 12:01:13;;;;;;;49.72;27.23;;;;;;;8.84;53.87;94610.81;5030689;28;20040;-68